Time;durP1;ratioP1;P1;durP2;ratioP2;P2;SDS_P1;SDS_P2;PMS_P1;PMS_P2;Temp;Humidity;BMP_temperature;BMP_pressure;BME280_temperature;BME280_humidity;BME280_pressure;Samples;Min_cycle;Max_cycle;Signal;HPM_P1;HPM_P2
2021/07/03 00:02:18;;;;;;;7.20;5.10;;;17.30;99.90;;;;;;5263920;27;20126;-64
2021/07/03 00:04:45;;;;;;;6.27;4.77;;;17.30;99.90;;;;;;5263796;27;20145;-62
2021/07/03 00:07:12;;;;;;;5.53;4.93;;;17.20;99.90;;;;;;5264220;27;20126;-63
2021/07/03 00:09:39;;;;;;;5.43;4.93;;;17.10;99.90;;;;;;5265974;27;20142;-63
2021/07/03 00:12:08;;;;;;;8.87;5.00;;;17.20;99.90;;;;;;5265998;27;20122;-63
2021/07/03 00:14:36;;;;;;;6.03;4.90;;;17.20;99.90;;;;;;5264086;27;20123;-63
2021/07/03 00:17:03;;;;;;;5.90;5.17;;;17.30;99.90;;;;;;5267188;27;20141;-63
2021/07/03 00:19:31;;;;;;;5.73;5.13;;;17.30;99.90;;;;;;5265996;27;20127;-63
2021/07/03 00:21:58;;;;;;;6.73;5.13;;;17.20;99.90;;;;;;5266973;27;20479;-62
2021/07/03 00:24:25;;;;;;;6.60;5.10;;;17.20;99.90;;;;;;5268036;27;20152;-63
2021/07/03 00:26:56;;;;;;;5.90;5.30;;;17.20;99.90;;;;;;5265906;27;20114;-63
2021/07/03 00:29:23;;;;;;;5.77;5.13;;;17.20;99.90;;;;;;5267738;27;20142;-63
2021/07/03 00:31:49;;;;;;;6.13;5.53;;;17.20;99.90;;;;;;5265907;27;20449;-63
2021/07/03 00:34:17;;;;;;;5.90;5.20;;;17.20;99.90;;;;;;5265796;27;20149;-64
2021/07/03 00:36:45;;;;;;;6.17;5.20;;;17.20;99.90;;;;;;5265123;27;20136;-63
2021/07/03 00:39:12;;;;;;;7.30;5.37;;;17.30;99.90;;;;;;5266584;27;20122;-63
2021/07/03 00:41:39;;;;;;;6.37;5.40;;;17.30;99.90;;;;;;5265869;27;20461;-63
2021/07/03 00:44:06;;;;;;;6.40;5.67;;;17.20;99.90;;;;;;5266200;27;20111;-63
2021/07/03 00:46:33;;;;;;;7.27;5.80;;;17.20;99.90;;;;;;5265747;27;20182;-63
2021/07/03 00:49:00;;;;;;;8.50;6.17;;;17.20;99.90;;;;;;5266411;27;20141;-63
2021/07/03 00:51:27;;;;;;;8.57;5.73;;;17.10;99.90;;;;;;5266224;27;20160;-63
2021/07/03 00:53:54;;;;;;;7.43;5.97;;;17.10;99.90;;;;;;5266572;27;20115;-62
2021/07/03 00:56:21;;;;;;;9.43;6.40;;;17.10;99.90;;;;;;5266320;27;20111;-62
2021/07/03 00:58:48;;;;;;;9.20;6.70;;;17.00;99.90;;;;;;5265634;27;20165;-62
2021/07/03 01:01:15;;;;;;;9.47;6.87;;;17.00;99.90;;;;;;5265116;27;20124;-62
2021/07/03 01:03:42;;;;;;;7.80;6.27;;;17.00;99.90;;;;;;5265911;27;20114;-63
2021/07/03 01:06:08;;;;;;;10.77;6.80;;;17.10;99.90;;;;;;5266965;27;20115;-61
2021/07/03 01:08:35;;;;;;;8.57;6.30;;;17.00;99.90;;;;;;5266386;27;20126;-61
2021/07/03 01:11:02;;;;;;;9.50;6.20;;;17.00;99.90;;;;;;5264682;27;20316;-61
2021/07/03 01:13:30;;;;;;;7.53;6.27;;;17.00;99.90;;;;;;5266075;27;20436;-61
2021/07/03 01:15:57;;;;;;;8.37;6.30;;;17.00;99.90;;;;;;5265028;27;20158;-61
2021/07/03 01:18:25;;;;;;;7.53;6.27;;;16.90;99.90;;;;;;5266239;27;20131;-61
2021/07/03 01:20:53;;;;;;;10.47;6.70;;;16.90;99.90;;;;;;5264612;27;20338;-61
2021/07/03 01:23:22;;;;;;;9.13;6.80;;;16.80;99.90;;;;;;5264627;27;20363;-61
2021/07/03 01:25:55;;;;;;;7.67;6.57;;;16.80;99.90;;;;;;5266540;27;20123;-61
2021/07/03 01:28:22;;;;;;;9.37;7.10;;;16.80;99.90;;;;;;5266737;27;20115;-62
2021/07/03 01:30:50;;;;;;;9.37;7.43;;;16.90;99.90;;;;;;5266142;27;20111;-62
2021/07/03 01:33:17;;;;;;;9.93;7.47;;;16.80;99.90;;;;;;5266177;27;20121;-62
2021/07/03 01:35:44;;;;;;;11.73;7.83;;;16.80;99.90;;;;;;5265519;27;20107;-63
2021/07/03 01:38:17;;;;;;;11.17;7.63;;;16.80;99.90;;;;;;5265398;27;20130;-61
2021/07/03 01:40:45;;;;;;;9.40;7.97;;;16.70;99.90;;;;;;5266037;27;20200;-62
2021/07/03 01:43:24;;;;;;;11.07;7.23;;;16.70;99.90;;;;;;5265983;27;20201;-62
2021/07/03 01:45:52;;;;;;;7.73;6.57;;;16.80;99.90;;;;;;5265953;27;20135;-62
2021/07/03 01:48:31;;;;;;;10.40;7.17;;;16.90;99.90;;;;;;5263928;27;20125;-62
2021/07/03 01:50:59;;;;;;;9.13;7.10;;;16.80;99.90;;;;;;5266286;27;20385;-62
2021/07/03 01:53:26;;;;;;;9.73;6.90;;;16.90;99.90;;;;;;5265726;27;20130;-62
2021/07/03 01:55:53;;;;;;;8.57;6.80;;;16.90;99.90;;;;;;5265150;27;20126;-62
2021/07/03 01:58:23;;;;;;;8.20;7.03;;;16.80;99.90;;;;;;5266027;27;20137;-62
2021/07/03 02:00:53;;;;;;;9.43;7.17;;;16.80;99.90;;;;;;5266120;27;20147;-62
2021/07/03 02:03:24;;;;;;;8.13;6.43;;;16.80;99.90;;;;;;5266148;27;20162;-62
2021/07/03 02:05:52;;;;;;;9.47;6.90;;;16.90;99.90;;;;;;5264020;27;20110;-62
2021/07/03 02:08:20;;;;;;;9.67;7.03;;;16.80;99.90;;;;;;5266084;27;20138;-62
2021/07/03 02:10:47;;;;;;;7.77;6.60;;;16.80;99.90;;;;;;5265977;27;20111;-63
2021/07/03 02:13:14;;;;;;;8.13;6.20;;;16.80;99.90;;;;;;5266034;27;20115;-62
2021/07/03 02:15:41;;;;;;;8.30;6.57;;;16.80;99.90;;;;;;5266035;27;20146;-62
2021/07/03 02:18:08;;;;;;;10.67;6.90;;;16.80;99.90;;;;;;5265913;27;20476;-63
2021/07/03 02:20:35;;;;;;;10.07;6.57;;;16.80;99.90;;;;;;5265779;27;20370;-60
2021/07/03 02:23:03;;;;;;;9.13;6.93;;;16.80;99.90;;;;;;5265914;27;20115;-61
2021/07/03 02:25:31;;;;;;;10.17;7.37;;;16.90;99.90;;;;;;5267215;27;20287;-61
2021/07/03 02:27:58;;;;;;;9.70;7.80;;;16.80;99.90;;;;;;5267918;27;20138;-61
2021/07/03 02:30:26;;;;;;;10.43;7.50;;;16.90;99.90;;;;;;5267458;27;20340;-61
2021/07/03 02:32:53;;;;;;;12.17;7.70;;;16.80;99.90;;;;;;5267290;27;20160;-61
2021/07/03 02:35:21;;;;;;;9.90;7.90;;;16.80;99.90;;;;;;5266505;27;20115;-61
2021/07/03 02:37:48;;;;;;;9.37;7.13;;;16.80;99.90;;;;;;5265076;27;20111;-61
2021/07/03 02:40:17;;;;;;;9.60;7.90;;;16.80;99.90;;;;;;5267228;27;20118;-61
2021/07/03 02:42:45;;;;;;;9.83;7.00;;;16.90;99.90;;;;;;5267339;27;20111;-62
2021/07/03 02:45:14;;;;;;;10.70;7.47;;;16.80;99.90;;;;;;5267066;27;20191;-62
2021/07/03 02:47:42;;;;;;;9.90;7.10;;;16.80;99.90;;;;;;5267178;27;20328;-62
2021/07/03 02:50:12;;;;;;;8.17;5.83;;;16.80;99.90;;;;;;5266340;27;20415;-61
2021/07/03 02:52:39;;;;;;;7.73;5.43;;;16.80;99.90;;;;;;5267211;27;20176;-62
2021/07/03 02:55:08;;;;;;;7.33;4.80;;;16.80;99.90;;;;;;5267261;27;20437;-62
2021/07/03 02:57:35;;;;;;;6.50;4.80;;;16.80;99.90;;;;;;5267212;27;20115;-62
2021/07/03 03:00:07;;;;;;;7.67;4.97;;;16.80;99.90;;;;;;5267141;27;20118;-62
2021/07/03 03:02:35;;;;;;;6.83;4.97;;;16.70;99.90;;;;;;5267521;27;20115;-62
2021/07/03 03:05:06;;;;;;;5.80;4.03;;;16.70;99.90;;;;;;5267152;27;20427;-62
2021/07/03 03:07:37;;;;;;;4.40;3.60;;;16.80;99.90;;;;;;5267033;27;20155;-63
2021/07/03 03:10:06;;;;;;;4.70;3.70;;;16.70;99.90;;;;;;5267079;27;20144;-62
2021/07/03 03:12:33;;;;;;;5.63;4.60;;;16.80;99.90;;;;;;5266689;27;20129;-61
2021/07/03 03:15:01;;;;;;;7.13;4.87;;;16.80;99.90;;;;;;5266683;27;20149;-62
2021/07/03 03:17:27;;;;;;;6.07;4.33;;;16.80;99.90;;;;;;5266370;27;20134;-62
2021/07/03 03:19:54;;;;;;;6.53;4.80;;;16.80;99.90;;;;;;5266539;27;20149;-62
2021/07/03 03:22:21;;;;;;;6.27;5.23;;;16.90;99.90;;;;;;5266840;27;20115;-62
2021/07/03 03:24:48;;;;;;;9.93;6.17;;;16.80;99.90;;;;;;5266908;27;20115;-61
2021/07/03 03:27:15;;;;;;;8.73;6.30;;;16.80;99.90;;;;;;5266878;27;20125;-61
2021/07/03 03:29:42;;;;;;;8.83;6.77;;;16.90;99.90;;;;;;5267280;27;20118;-61
2021/07/03 03:32:09;;;;;;;11.17;7.70;;;16.90;99.90;;;;;;5266826;27;20157;-61
2021/07/03 03:34:36;;;;;;;10.40;7.97;;;16.90;99.90;;;;;;5266832;27;20142;-61
2021/07/03 03:37:03;;;;;;;11.07;8.30;;;16.90;99.90;;;;;;5264819;27;20180;-61
2021/07/03 03:39:30;;;;;;;14.30;9.17;;;16.80;99.90;;;;;;5266617;27;20163;-62
2021/07/03 03:41:56;;;;;;;11.47;8.73;;;16.80;99.90;;;;;;5266811;27;20378;-62
2021/07/03 03:44:23;;;;;;;13.43;9.90;;;16.80;99.90;;;;;;5264571;27;20111;-62
2021/07/03 03:46:53;;;;;;;14.07;10.40;;;16.80;99.90;;;;;;5265864;27;20114;-62
2021/07/03 03:49:21;;;;;;;15.57;10.87;;;16.80;99.90;;;;;;5267171;27;20144;-62
2021/07/03 03:51:49;;;;;;;17.47;10.97;;;16.80;99.90;;;;;;5266088;27;20114;-62
2021/07/03 03:54:17;;;;;;;20.57;13.10;;;16.80;99.90;;;;;;5266681;27;20174;-62
2021/07/03 03:56:44;;;;;;;20.17;14.17;;;16.80;99.90;;;;;;5266749;27;20131;-62
2021/07/03 03:59:11;;;;;;;21.17;14.13;;;16.90;99.90;;;;;;5266670;27;20183;-62
2021/07/03 04:01:38;;;;;;;22.07;14.07;;;16.90;99.90;;;;;;5264624;27;20118;-63
2021/07/03 04:04:06;;;;;;;20.07;14.13;;;16.90;99.90;;;;;;5266789;27;20115;-62
2021/07/03 04:06:32;;;;;;;21.17;14.13;;;16.90;99.90;;;;;;5266568;27;20425;-63
2021/07/03 04:08:59;;;;;;;20.10;13.73;;;16.90;99.90;;;;;;5266698;27;20142;-63
2021/07/03 04:11:26;;;;;;;19.60;13.47;;;16.90;99.90;;;;;;5266768;27;20110;-62
2021/07/03 04:13:53;;;;;;;18.93;13.13;;;17.00;99.90;;;;;;5265322;27;20131;-62
2021/07/03 04:16:20;;;;;;;19.07;12.83;;;17.00;99.90;;;;;;5266799;27;20111;-62
2021/07/03 04:18:47;;;;;;;16.33;12.60;;;17.00;99.90;;;;;;5266700;27;20140;-63
2021/07/03 04:21:14;;;;;;;19.50;12.27;;;17.10;99.90;;;;;;5266652;27;20174;-63
2021/07/03 04:23:41;;;;;;;17.60;11.63;;;17.10;99.90;;;;;;5266686;27;20126;-62
2021/07/03 04:26:08;;;;;;;15.20;10.67;;;17.20;99.90;;;;;;5263714;27;20126;-62
2021/07/03 04:28:35;;;;;;;15.93;11.57;;;17.20;99.90;;;;;;5264603;27;20110;-62
2021/07/03 04:31:01;;;;;;;16.83;11.50;;;17.20;99.90;;;;;;5266478;27;20115;-63
2021/07/03 04:33:28;;;;;;;17.70;12.33;;;17.20;99.90;;;;;;5264868;27;20114;-62
2021/07/03 04:35:55;;;;;;;18.53;12.60;;;17.20;99.90;;;;;;5265308;27;20148;-62
2021/07/03 04:38:22;;;;;;;18.93;12.40;;;17.20;99.90;;;;;;5266284;27;20130;-62
2021/07/03 04:40:49;;;;;;;17.93;12.80;;;17.20;99.90;;;;;;5265928;27;20348;-62
2021/07/03 04:43:16;;;;;;;18.60;12.80;;;17.20;99.90;;;;;;5266384;27;20481;-63
2021/07/03 04:45:43;;;;;;;18.00;12.93;;;17.20;99.90;;;;;;5265580;27;20468;-63
2021/07/03 04:48:09;;;;;;;17.93;12.43;;;17.20;99.90;;;;;;5266965;27;20138;-62
2021/07/03 04:50:36;;;;;;;18.57;12.50;;;17.20;99.90;;;;;;5264822;27;20110;-62
2021/07/03 04:53:03;;;;;;;17.87;12.37;;;17.20;99.90;;;;;;5264288;27;20130;-63
2021/07/03 04:55:30;;;;;;;17.70;12.00;;;17.20;99.90;;;;;;5266490;27;20107;-62
2021/07/03 04:57:57;;;;;;;20.23;12.17;;;17.20;99.90;;;;;;5266395;27;20114;-62
2021/07/03 05:00:24;;;;;;;17.83;11.73;;;17.20;99.90;;;;;;5265623;27;20166;-62
2021/07/03 05:02:50;;;;;;;17.47;11.70;;;17.20;99.90;;;;;;5265564;27;20146;-62
2021/07/03 05:05:17;;;;;;;16.97;11.67;;;17.20;99.90;;;;;;5265616;27;20111;-62
2021/07/03 05:07:44;;;;;;;16.17;11.83;;;17.20;99.90;;;;;;5266210;27;20216;-62
2021/07/03 05:10:12;;;;;;;16.57;11.33;;;17.20;99.90;;;;;;5266412;27;20378;-63
2021/07/03 05:12:39;;;;;;;15.33;10.63;;;17.20;99.90;;;;;;5266318;27;20185;-63
2021/07/03 05:15:08;;;;;;;16.10;10.60;;;17.20;99.90;;;;;;5265182;27;20133;-62
2021/07/03 05:17:35;;;;;;;14.97;10.30;;;17.20;99.90;;;;;;5265901;27;20121;-62
2021/07/03 05:20:03;;;;;;;14.20;10.40;;;17.30;99.90;;;;;;5266083;27;20175;-62
2021/07/03 05:22:30;;;;;;;13.97;10.20;;;17.30;99.90;;;;;;5266267;27;20153;-61
2021/07/03 05:24:57;;;;;;;13.60;9.37;;;17.30;99.90;;;;;;5266206;27;20149;-61
2021/07/03 05:27:24;;;;;;;13.00;9.47;;;17.20;99.90;;;;;;5266106;27;20141;-61
2021/07/03 05:29:51;;;;;;;15.97;9.67;;;17.20;99.90;;;;;;5266109;27;20111;-61
2021/07/03 05:32:17;;;;;;;12.67;9.20;;;17.30;99.90;;;;;;5266122;27;20331;-61
2021/07/03 05:34:44;;;;;;;14.37;9.47;;;17.30;99.90;;;;;;5266144;27;20122;-62
2021/07/03 05:37:11;;;;;;;11.43;8.70;;;17.30;99.90;;;;;;5264121;27;20114;-62
2021/07/03 05:39:38;;;;;;;12.20;8.67;;;17.30;99.90;;;;;;5266047;27;20122;-63
2021/07/03 05:42:05;;;;;;;13.47;8.73;;;17.30;99.90;;;;;;5266115;27;20110;-62
2021/07/03 05:44:32;;;;;;;10.17;7.23;;;17.40;99.90;;;;;;5266013;27;20146;-63
2021/07/03 05:46:59;;;;;;;9.43;7.43;;;17.40;99.90;;;;;;5266036;27;20126;-62
2021/07/03 05:49:26;;;;;;;10.03;6.90;;;17.40;99.90;;;;;;5263675;27;20110;-62
2021/07/03 05:51:52;;;;;;;8.00;6.70;;;17.40;99.90;;;;;;5265971;27;20154;-63
2021/07/03 05:54:19;;;;;;;8.10;6.50;;;17.40;99.90;;;;;;5264572;27;20157;-62
2021/07/03 05:56:46;;;;;;;8.53;6.30;;;17.40;99.90;;;;;;5265818;27;20159;-62
2021/07/03 05:59:13;;;;;;;9.30;7.07;;;17.40;99.90;;;;;;5265453;27;20167;-62
2021/07/03 06:01:40;;;;;;;8.77;6.70;;;17.40;99.90;;;;;;5265873;27;20456;-62
2021/07/03 06:04:07;;;;;;;8.70;6.70;;;17.30;99.90;;;;;;5265579;27;20415;-62
2021/07/03 06:06:34;;;;;;;11.80;7.30;;;17.30;99.90;;;;;;5265960;27;20175;-62
2021/07/03 06:09:01;;;;;;;9.57;7.30;;;17.30;99.90;;;;;;5264949;27;20146;-61
2021/07/03 06:11:28;;;;;;;10.37;7.43;;;17.40;99.90;;;;;;5265753;27;20125;-61
2021/07/03 06:13:55;;;;;;;14.03;8.20;;;17.40;99.90;;;;;;5265670;27;20119;-62
2021/07/03 06:16:23;;;;;;;12.83;8.60;;;17.40;99.90;;;;;;5265745;27;20130;-61
2021/07/03 06:18:50;;;;;;;11.70;8.80;;;17.30;99.90;;;;;;5263676;27;20202;-62
2021/07/03 06:21:17;;;;;;;15.67;9.23;;;17.30;99.90;;;;;;5261195;27;20127;-61
2021/07/03 06:23:44;;;;;;;15.87;9.67;;;17.30;99.90;;;;;;5261456;27;20118;-62
2021/07/03 06:26:11;;;;;;;14.70;10.20;;;17.40;99.90;;;;;;5263600;27;20110;-62
2021/07/03 06:28:37;;;;;;;16.03;10.47;;;17.40;99.90;;;;;;5263318;27;20126;-62
2021/07/03 06:31:04;;;;;;;18.27;12.00;;;17.30;99.90;;;;;;5263740;27;20171;-62
2021/07/03 06:33:31;;;;;;;20.40;12.57;;;17.40;99.90;;;;;;5263708;27;20384;-62
2021/07/03 06:35:58;;;;;;;17.93;13.10;;;17.50;99.90;;;;;;5265474;27;20110;-62
2021/07/03 06:38:25;;;;;;;20.13;12.67;;;17.50;99.90;;;;;;5263535;27;20111;-62
2021/07/03 06:40:52;;;;;;;21.87;13.07;;;17.50;99.90;;;;;;5265566;27;20129;-62
2021/07/03 06:43:19;;;;;;;21.27;13.93;;;17.50;99.90;;;;;;5265724;27;20357;-63
2021/07/03 06:45:45;;;;;;;22.33;14.77;;;17.60;99.90;;;;;;5263179;27;20189;-62
2021/07/03 06:48:13;;;;;;;21.50;14.63;;;17.60;99.90;;;;;;5265652;27;20401;-62
2021/07/03 06:50:39;;;;;;;22.83;14.63;;;17.70;99.90;;;;;;5263636;27;20499;-62
2021/07/03 06:53:06;;;;;;;22.90;14.17;;;17.70;99.90;;;;;;5265606;27;20171;-62
2021/07/03 06:55:33;;;;;;;25.50;14.87;;;17.70;99.90;;;;;;5265129;27;20162;-61
2021/07/03 06:58:00;;;;;;;20.83;15.10;;;17.70;99.90;;;;;;5264406;27;20122;-62
2021/07/03 07:00:27;;;;;;;20.13;13.60;;;17.80;99.90;;;;;;5261154;27;20177;-62
2021/07/03 07:02:54;;;;;;;23.70;13.87;;;17.80;99.90;;;;;;5264648;27;20114;-62
2021/07/03 07:05:21;;;;;;;22.33;14.17;;;17.80;99.90;;;;;;5264720;27;20210;-62
2021/07/03 07:07:48;;;;;;;22.20;14.10;;;17.90;99.90;;;;;;5265328;27;20114;-63
2021/07/03 07:10:15;;;;;;;21.90;13.67;;;17.90;99.90;;;;;;5263360;27;20130;-62
2021/07/03 07:12:42;;;;;;;21.37;14.90;;;17.90;99.90;;;;;;5266425;27;20151;-62
2021/07/03 07:15:10;;;;;;;23.20;14.60;;;17.90;99.90;;;;;;5266994;27;20183;-62
2021/07/03 07:17:37;;;;;;;22.70;14.60;;;18.00;99.90;;;;;;5267060;27;20114;-61
2021/07/03 07:20:05;;;;;;;22.90;14.90;;;18.00;99.90;;;;;;5265760;27;20166;-62
2021/07/03 07:22:33;;;;;;;21.83;15.40;;;18.00;99.90;;;;;;5266836;27;20155;-63
2021/07/03 07:25:00;;;;;;;21.97;14.57;;;18.00;99.90;;;;;;5266756;27;20452;-62
2021/07/03 07:27:27;;;;;;;20.73;14.57;;;18.10;99.90;;;;;;5264911;27;20416;-62
2021/07/03 07:29:53;;;;;;;20.13;14.00;;;18.10;99.90;;;;;;5266112;27;20149;-62
2021/07/03 07:32:21;;;;;;;21.50;14.07;;;18.20;99.90;;;;;;5266630;27;20126;-63
2021/07/03 07:34:49;;;;;;;21.30;13.17;;;18.30;99.90;;;;;;5266720;27;20114;-63
2021/07/03 07:37:16;;;;;;;19.40;12.73;;;18.30;99.90;;;;;;5265882;27;20111;-63
2021/07/03 07:39:43;;;;;;;20.87;13.40;;;18.40;99.90;;;;;;5264536;27;20157;-63
2021/07/03 07:42:10;;;;;;;20.53;13.30;;;18.50;99.90;;;;;;5262469;27;20149;-63
2021/07/03 07:44:36;;;;;;;18.87;13.43;;;18.50;99.90;;;;;;5262890;27;20152;-63
2021/07/03 07:47:03;;;;;;;22.50;13.50;;;18.50;99.90;;;;;;5261859;27;20140;-63
2021/07/03 07:49:30;;;;;;;20.53;13.83;;;18.60;99.90;;;;;;5262464;27;20127;-63
2021/07/03 07:51:58;;;;;;;20.50;13.83;;;18.50;99.90;;;;;;5263096;27;20123;-63
2021/07/03 07:54:25;;;;;;;20.13;14.20;;;18.60;99.90;;;;;;5264100;27;20138;-63
2021/07/03 07:56:52;;;;;;;23.83;14.63;;;18.50;99.90;;;;;;5265502;27;20158;-63
2021/07/03 07:59:19;;;;;;;19.93;13.93;;;18.50;99.90;;;;;;5264782;27;20111;-63
2021/07/03 08:01:46;;;;;;;20.80;14.27;;;18.50;99.90;;;;;;5266813;27;20111;-64
2021/07/03 08:04:13;;;;;;;25.87;15.03;;;18.50;99.90;;;;;;5266116;27;20114;-64
2021/07/03 08:06:40;;;;;;;23.20;15.30;;;18.40;99.90;;;;;;5264138;27;20146;-64
2021/07/03 08:09:06;;;;;;;22.87;15.37;;;18.50;99.90;;;;;;5265390;27;20111;-64
2021/07/03 08:11:33;;;;;;;22.87;14.67;;;18.60;99.90;;;;;;5265258;27;20162;-64
2021/07/03 08:14:03;;;;;;;23.03;16.13;;;18.60;99.90;;;;;;5263765;27;20125;-64
2021/07/03 08:16:30;;;;;;;23.60;15.40;;;18.60;99.90;;;;;;5266390;27;20134;-64
2021/07/03 08:18:57;;;;;;;21.20;15.07;;;18.70;99.90;;;;;;5266096;27;20182;-64
2021/07/03 08:21:24;;;;;;;19.67;14.27;;;18.90;99.90;;;;;;5265930;27;20118;-65
2021/07/03 08:23:52;;;;;;;22.07;14.53;;;18.90;99.90;;;;;;5264077;27;20118;-65
2021/07/03 08:26:19;;;;;;;20.53;14.20;;;19.00;99.90;;;;;;5266322;27;20115;-65
2021/07/03 08:28:46;;;;;;;21.10;13.47;;;19.00;99.90;;;;;;5265708;27;20111;-65
2021/07/03 08:31:13;;;;;;;18.80;13.60;;;19.00;99.90;;;;;;5264144;27;20416;-64
2021/07/03 08:33:40;;;;;;;21.57;14.67;;;19.10;99.90;;;;;;5266322;27;20114;-64
2021/07/03 08:36:07;;;;;;;19.27;12.93;;;19.20;99.90;;;;;;5266088;27;20126;-65
2021/07/03 08:38:34;;;;;;;22.67;14.00;;;19.10;99.90;;;;;;5266190;27;20206;-65
2021/07/03 08:41:01;;;;;;;19.93;13.40;;;19.10;99.90;;;;;;5266117;27;20145;-66
2021/07/03 08:43:28;;;;;;;19.93;13.47;;;19.10;99.90;;;;;;5266100;27;20129;-65
2021/07/03 08:45:56;;;;;;;17.97;13.10;;;19.20;99.90;;;;;;5264780;27;20138;-64
2021/07/03 08:48:24;;;;;;;20.03;14.20;;;19.00;99.90;;;;;;5264226;27;20111;-64
2021/07/03 08:50:57;;;;;;;20.60;14.00;;;18.90;99.90;;;;;;5266192;27;20182;-64
2021/07/03 08:53:25;;;;;;;22.63;14.23;;;18.80;99.90;;;;;;5266254;27;20121;-65
2021/07/03 08:55:52;;;;;;;21.20;14.67;;;18.80;99.90;;;;;;5266248;27;20111;-65
2021/07/03 08:58:19;;;;;;;22.17;14.20;;;18.80;99.90;;;;;;5263896;27;20115;-64
2021/07/03 09:00:47;;;;;;;20.33;14.57;;;18.80;99.90;;;;;;5264571;27;20118;-65
2021/07/03 09:03:20;;;;;;;19.33;13.63;;;18.90;99.90;;;;;;5265535;27;20156;-64
2021/07/03 09:05:55;;;;;;;20.83;13.90;;;18.90;99.90;;;;;;5266556;27;20152;-65
2021/07/03 09:08:24;;;;;;;21.67;13.70;;;19.00;99.90;;;;;;5266238;27;20429;-65
2021/07/03 09:11:07;;;;;;;20.67;13.23;;;19.00;99.90;;;;;;5266038;27;20444;-64
2021/07/03 09:13:36;;;;;;;20.27;13.57;;;19.10;99.90;;;;;;5266062;27;20147;-65
2021/07/03 09:16:03;;;;;;;21.73;13.63;;;19.20;99.90;;;;;;5266127;27;20115;-66
2021/07/03 09:18:31;;;;;;;17.70;13.00;;;19.20;99.90;;;;;;5266183;27;20138;-66
2021/07/03 09:21:03;;;;;;;19.03;13.93;;;19.30;99.90;;;;;;5266536;27;20455;-65
2021/07/03 09:23:33;;;;;;;17.33;13.30;;;19.30;99.90;;;;;;5266363;27;20137;-66
2021/07/03 09:26:09;;;;;;;20.50;13.40;;;19.40;99.90;;;;;;5265491;27;20171;-65
2021/07/03 09:28:41;;;;;;;18.87;12.93;;;19.60;99.90;;;;;;5264036;27;20378;-65
2021/07/03 09:31:11;;;;;;;18.30;13.10;;;19.90;99.90;;;;;;5266051;27;20168;-65
2021/07/03 09:33:43;;;;;;;17.43;12.37;;;20.00;99.90;;;;;;5265779;27;20127;-64
2021/07/03 09:36:13;;;;;;;16.43;11.53;;;20.10;99.90;;;;;;5263916;27;20114;-66
2021/07/03 09:38:52;;;;;;;14.63;11.43;;;20.10;99.90;;;;;;5266035;27;20421;-66
2021/07/03 09:41:22;;;;;;;15.33;11.40;;;20.30;99.90;;;;;;5265916;27;20471;-64
2021/07/03 09:43:50;;;;;;;14.83;11.90;;;20.10;99.90;;;;;;5266196;27;20114;-66
2021/07/03 09:46:32;;;;;;;17.97;12.03;;;20.30;99.90;;;;;;5264109;27;20142;-66
2021/07/03 09:49:06;;;;;;;17.77;12.90;;;20.30;99.90;;;;;;5264395;27;20156;-64
2021/07/03 09:51:36;;;;;;;16.37;11.90;;;20.10;99.90;;;;;;5265439;27;20110;-65
2021/07/03 09:54:09;;;;;;;16.93;11.60;;;20.10;99.90;;;;;;5266017;27;20380;-65
2021/07/03 09:56:37;;;;;;;18.57;12.13;;;20.10;99.90;;;;;;5265307;27;20114;-64
2021/07/03 09:59:05;;;;;;;18.77;12.27;;;20.10;99.90;;;;;;5265748;27;20107;-64
2021/07/03 10:01:40;;;;;;;16.00;11.87;;;20.20;99.90;;;;;;5265904;27;20122;-65
2021/07/03 10:04:09;;;;;;;15.20;11.33;;;20.40;99.90;;;;;;5265474;27;20453;-64
2021/07/03 10:06:50;;;;;;;14.27;11.03;;;20.60;99.90;;;;;;5265939;27;20114;-64
2021/07/03 10:09:43;;;;;;;16.73;12.17;;;20.60;99.90;;;;;;5264132;27;20115;-64
2021/07/03 10:12:14;;;;;;;16.90;11.60;;;20.60;99.90;;;;;;5263538;27;20118;-64
2021/07/03 10:14:46;;;;;;;16.57;11.70;;;20.70;99.90;;;;;;5265643;27;20114;-64
2021/07/03 10:17:23;;;;;;;16.53;11.27;;;20.80;99.90;;;;;;5263872;27;20110;-65
2021/07/03 10:19:50;;;;;;;22.93;12.03;;;20.70;99.90;;;;;;5265615;27;20173;-64
2021/07/03 10:22:29;;;;;;;59.03;14.77;;;20.80;99.90;;;;;;5262609;27;20170;-63
2021/07/03 10:25:10;;;;;;;17.70;11.30;;;21.00;99.90;;;;;;5265629;27;20164;-65
2021/07/03 10:27:48;;;;;;;19.97;11.30;;;21.10;99.90;;;;;;5264112;27;20410;-65
2021/07/03 10:30:31;;;;;;;16.07;10.67;;;21.30;99.90;;;;;;5266031;27;20131;-65
2021/07/03 10:33:20;;;;;;;27.90;11.40;;;21.10;99.90;;;;;;5265815;27;20375;-66
2021/07/03 10:35:53;;;;;;;31.30;11.60;;;21.40;99.90;;;;;;5265884;27;20110;-71
2021/07/03 10:38:22;;;;;;;73.83;17.27;;;21.60;99.90;;;;;;5264028;27;20130;-70
2021/07/03 10:40:51;;;;;;;14.27;10.63;;;21.70;99.90;;;;;;5263515;27;20149;-69
2021/07/03 10:43:18;;;;;;;14.17;10.70;;;21.50;99.90;;;;;;5244492;27;20126;-69
2021/07/03 10:45:50;;;;;;;13.63;10.43;;;21.40;99.90;;;;;;5264324;27;20184;-69
2021/07/03 10:48:27;;;;;;;19.10;11.40;;;21.50;99.90;;;;;;5264777;27;20152;-69
2021/07/03 10:50:55;;;;;;;14.33;10.63;;;21.60;99.90;;;;;;5265516;27;20114;-64
2021/07/03 10:53:29;;;;;;;16.23;10.40;;;21.70;99.90;;;;;;5266663;27;20181;-64
2021/07/03 10:56:12;;;;;;;12.63;9.63;;;21.80;99.90;;;;;;5267390;27;20114;-65
2021/07/03 10:58:42;;;;;;;14.20;9.30;;;21.90;99.90;;;;;;5267362;27;20129;-64
2021/07/03 11:01:11;;;;;;;13.50;10.30;;;22.20;99.90;;;;;;5264909;27;20119;-63
2021/07/03 11:03:49;;;;;;;13.73;9.57;;;22.20;99.90;;;;;;5266565;27;20178;-64
2021/07/03 11:06:19;;;;;;;11.60;9.63;;;22.50;99.90;;;;;;5265516;27;20464;-65
2021/07/03 11:08:49;;;;;;;12.07;9.20;;;22.60;99.90;;;;;;5267410;27;20159;-65
2021/07/03 11:11:17;;;;;;;13.33;9.87;;;22.80;99.90;;;;;;5265447;27;20125;-63
2021/07/03 11:13:46;;;;;;;13.23;9.57;;;23.00;99.90;;;;;;5267129;27;20110;-63
2021/07/03 11:16:14;;;;;;;11.60;9.77;;;22.80;99.90;;;;;;5267124;27;20110;-64
2021/07/03 11:18:47;;;;;;;12.30;9.70;;;22.50;99.90;;;;;;5267135;27;20138;-63
2021/07/03 11:21:16;;;;;;;12.07;10.13;;;22.40;99.90;;;;;;5266557;27;20118;-64
2021/07/03 11:23:42;;;;;;;16.10;10.13;;;22.40;99.90;;;;;;5267127;27;20452;-65
2021/07/03 11:26:11;;;;;;;12.07;9.47;;;22.50;99.90;;;;;;5266753;27;20122;-64
2021/07/03 11:28:39;;;;;;;15.43;10.10;;;22.70;99.90;;;;;;5267126;27;20119;-65
2021/07/03 11:31:07;;;;;;;13.13;9.87;;;23.20;99.90;;;;;;5267111;27;20321;-64
2021/07/03 11:33:40;;;;;;;12.87;9.50;;;23.20;99.90;;;;;;5267611;27;20425;-65
2021/07/03 11:36:11;;;;;;;12.30;9.93;;;23.20;99.90;;;;;;5266987;27;20130;-64
2021/07/03 11:38:38;;;;;;;10.77;9.13;;;23.40;99.90;;;;;;5266374;27;20381;-63
2021/07/03 11:41:05;;;;;;;12.60;9.93;;;23.30;99.90;;;;;;5266907;27;20177;-63
2021/07/03 11:43:32;;;;;;;11.60;9.27;;;23.50;99.90;;;;;;5267063;27;20445;-64
2021/07/03 11:46:02;;;;;;;13.27;9.13;;;23.70;99.90;;;;;;5265402;27;20181;-64
2021/07/03 11:48:30;;;;;;;12.43;8.67;;;23.90;99.90;;;;;;5266910;27;20110;-64
2021/07/03 11:51:03;;;;;;;12.68;9.00;;;24.00;99.90;;;;;;5266914;27;20392;-63
2021/07/03 11:53:31;;;;;;;11.20;8.83;;;24.20;99.90;;;;;;5267009;27;20133;-64
2021/07/03 11:56:02;;;;;;;11.12;9.63;;;23.80;99.90;;;;;;5266801;27;20153;-63
2021/07/03 11:58:32;;;;;;;9.68;8.10;;;24.00;99.90;;;;;;5265952;27;20115;-64
2021/07/03 12:01:06;;;;;;;11.70;8.67;;;24.50;99.90;;;;;;5266902;27;20122;-65
2021/07/03 12:03:35;;;;;;;13.63;8.67;;;24.60;99.90;;;;;;5265607;27;20109;-65
2021/07/03 12:06:04;;;;;;;10.55;8.70;;;24.20;99.90;;;;;;5266797;27;20410;-63
2021/07/03 12:08:35;;;;;;;12.37;9.00;;;24.20;99.90;;;;;;5267084;27;20111;-66
2021/07/03 12:11:04;;;;;;;12.93;9.57;;;24.10;99.90;;;;;;5267262;27;20159;-65
2021/07/03 12:13:35;;;;;;;13.77;9.15;;;23.80;99.90;;;;;;5267123;27;20302;-66
2021/07/03 12:16:07;;;;;;;11.37;8.63;;;23.80;99.90;;;;;;5265305;27;20153;-66
2021/07/03 12:18:36;;;;;;;11.40;9.43;;;24.10;99.90;;;;;;5267646;27;20163;-65
2021/07/03 12:21:05;;;;;;;13.80;9.73;;;24.20;99.90;;;;;;5267145;27;20218;-64
2021/07/03 12:23:34;;;;;;;11.30;9.00;;;24.30;99.90;;;;;;5265909;27;20134;-64
2021/07/03 12:26:04;;;;;;;9.82;8.57;;;24.30;99.90;;;;;;5266989;27;20158;-64
2021/07/03 12:28:34;;;;;;;11.77;9.20;;;24.10;99.90;;;;;;5267106;27;20494;-65
2021/07/03 12:31:11;;;;;;;11.23;8.77;;;24.30;99.90;;;;;;5266493;27;20130;-64
2021/07/03 12:33:39;;;;;;;11.43;8.80;;;24.40;99.90;;;;;;5267134;27;20115;-64
2021/07/03 12:36:19;;;;;;;11.80;9.67;;;24.20;99.90;;;;;;5266097;27;20156;-64
2021/07/03 12:38:46;;;;;;;11.43;9.13;;;24.00;99.90;;;;;;5267154;27;20172;-64
2021/07/03 12:41:14;;;;;;;10.90;8.53;;;23.70;99.90;;;;;;5264662;27;20122;-65
2021/07/03 12:43:41;;;;;;;10.50;8.50;;;23.70;99.90;;;;;;5265226;27;20114;-63